sensor_id;sensor_type;location;lat;lon;timestamp;P1;durP1;ratioP1;P2;durP2;ratioP2
23113;SDS011;11726;50.122;8.832;2022-08-16T00:00:08;4.93;;;3.80;;
23113;SDS011;11726;50.122;8.832;2022-08-16T00:02:47;4.03;;;3.63;;
23113;SDS011;11726;50.122;8.832;2022-08-16T00:05:17;5.72;;;3.33;;
23113;SDS011;11726;50.122;8.832;2022-08-16T00:07:45;8.93;;;3.47;;
23113;SDS011;11726;50.122;8.832;2022-08-16T00:10:13;6.80;;;3.72;;
23113;SDS011;11726;50.122;8.832;2022-08-16T00:12:46;3.97;;;3.58;;
23113;SDS011;11726;50.122;8.832;2022-08-16T00:15:27;7.55;;;3.92;;
23113;SDS011;11726;50.122;8.832;2022-08-16T00:18:17;4.55;;;3.40;;
23113;SDS011;11726;50.122;8.832;2022-08-16T00:20:55;3.95;;;3.53;;
23113;SDS011;11726;50.122;8.832;2022-08-16T00:23:23;5.70;;;3.50;;
23113;SDS011;11726;50.122;8.832;2022-08-16T00:26:05;6.63;;;3.53;;
23113;SDS011;11726;50.122;8.832;2022-08-16T00:28:52;5.07;;;3.78;;
23113;SDS011;11726;50.122;8.832;2022-08-16T00:31:20;6.00;;;3.22;;
23113;SDS011;11726;50.122;8.832;2022-08-16T00:33:49;7.85;;;3.75;;
23113;SDS011;11726;50.122;8.832;2022-08-16T00:36:15;8.43;;;4.05;;
23113;SDS011;11726;50.122;8.832;2022-08-16T00:38:42;6.95;;;3.40;;
23113;SDS011;11726;50.122;8.832;2022-08-16T00:41:09;8.73;;;3.60;;
23113;SDS011;11726;50.122;8.832;2022-08-16T00:43:36;8.05;;;3.75;;
23113;SDS011;11726;50.122;8.832;2022-08-16T00:46:10;8.52;;;3.65;;
23113;SDS011;11726;50.122;8.832;2022-08-16T00:49:03;7.05;;;3.88;;
23113;SDS011;11726;50.122;8.832;2022-08-16T00:51:44;8.20;;;3.90;;
23113;SDS011;11726;50.122;8.832;2022-08-16T00:54:19;5.55;;;3.80;;
23113;SDS011;11726;50.122;8.832;2022-08-16T00:56:48;4.97;;;3.38;;
23113;SDS011;11726;50.122;8.832;2022-08-16T00:59:25;4.10;;;3.60;;
23113;SDS011;11726;50.122;8.832;2022-08-16T01:01:58;13.93;;;4.00;;
23113;SDS011;11726;50.122;8.832;2022-08-16T01:04:46;13.35;;;3.90;;
23113;SDS011;11726;50.122;8.832;2022-08-16T01:07:33;6.80;;;4.00;;
23113;SDS011;11726;50.122;8.832;2022-08-16T01:10:17;7.68;;;3.58;;
23113;SDS011;11726;50.122;8.832;2022-08-16T01:12:45;6.63;;;4.10;;
23113;SDS011;11726;50.122;8.832;2022-08-16T01:15:12;5.93;;;3.88;;
23113;SDS011;11726;50.122;8.832;2022-08-16T01:17:40;6.38;;;3.55;;
23113;SDS011;11726;50.122;8.832;2022-08-16T01:20:08;6.53;;;4.18;;
23113;SDS011;11726;50.122;8.832;2022-08-16T01:23:35;5.25;;;4.05;;
23113;SDS011;11726;50.122;8.832;2022-08-16T01:25:44;6.75;;;3.80;;
23113;SDS011;11726;50.122;8.832;2022-08-16T01:28:34;5.40;;;3.90;;
23113;SDS011;11726;50.122;8.832;2022-08-16T01:31:10;6.57;;;4.40;;
23113;SDS011;11726;50.122;8.832;2022-08-16T01:33:39;6.15;;;4.88;;
23113;SDS011;11726;50.122;8.832;2022-08-16T01:36:10;5.70;;;4.85;;
23113;SDS011;11726;50.122;8.832;2022-08-16T01:38:39;5.57;;;4.55;;
23113;SDS011;11726;50.122;8.832;2022-08-16T01:41:18;6.50;;;4.80;;
23113;SDS011;11726;50.122;8.832;2022-08-16T01:43:49;7.07;;;5.03;;
23113;SDS011;11726;50.122;8.832;2022-08-16T01:46:22;5.57;;;4.45;;
23113;SDS011;11726;50.122;8.832;2022-08-16T01:49:06;6.25;;;4.93;;
23113;SDS011;11726;50.122;8.832;2022-08-16T01:51:36;8.98;;;5.60;;
23113;SDS011;11726;50.122;8.832;2022-08-16T01:54:04;12.00;;;5.22;;
23113;SDS011;11726;50.122;8.832;2022-08-16T01:56:32;6.47;;;5.50;;
23113;SDS011;11726;50.122;8.832;2022-08-16T01:59:00;8.80;;;4.90;;
23113;SDS011;11726;50.122;8.832;2022-08-16T02:01:30;8.45;;;5.43;;
23113;SDS011;11726;50.122;8.832;2022-08-16T02:03:59;8.25;;;4.93;;
23113;SDS011;11726;50.122;8.832;2022-08-16T02:06:35;5.70;;;5.00;;
23113;SDS011;11726;50.122;8.832;2022-08-16T02:09:04;6.45;;;5.18;;
23113;SDS011;11726;50.122;8.832;2022-08-16T02:11:38;6.47;;;5.10;;
23113;SDS011;11726;50.122;8.832;2022-08-16T02:14:17;6.47;;;4.72;;
23113;SDS011;11726;50.122;8.832;2022-08-16T02:16:47;6.18;;;4.65;;
23113;SDS011;11726;50.122;8.832;2022-08-16T02:19:15;10.00;;;5.22;;
23113;SDS011;11726;50.122;8.832;2022-08-16T02:21:45;10.15;;;4.93;;
23113;SDS011;11726;50.122;8.832;2022-08-16T02:24:37;7.25;;;5.38;;
23113;SDS011;11726;50.122;8.832;2022-08-16T02:27:11;6.90;;;6.05;;
23113;SDS011;11726;50.122;8.832;2022-08-16T02:29:38;8.75;;;5.97;;
23113;SDS011;11726;50.122;8.832;2022-08-16T02:32:08;9.00;;;5.43;;
23113;SDS011;11726;50.122;8.832;2022-08-16T02:34:57;7.38;;;6.13;;
23113;SDS011;11726;50.122;8.832;2022-08-16T02:37:24;8.40;;;6.10;;
23113;SDS011;11726;50.122;8.832;2022-08-16T02:40:11;7.65;;;6.53;;
23113;SDS011;11726;50.122;8.832;2022-08-16T02:42:45;8.57;;;6.25;;
23113;SDS011;11726;50.122;8.832;2022-08-16T02:45:17;6.97;;;5.65;;
23113;SDS011;11726;50.122;8.832;2022-08-16T02:47:53;11.25;;;6.88;;
23113;SDS011;11726;50.122;8.832;2022-08-16T02:50:40;11.50;;;6.07;;
23113;SDS011;11726;50.122;8.832;2022-08-16T02:53:27;8.40;;;5.97;;
23113;SDS011;11726;50.122;8.832;2022-08-16T02:55:55;7.10;;;6.10;;
23113;SDS011;11726;50.122;8.832;2022-08-16T02:58:21;6.53;;;5.70;;
23113;SDS011;11726;50.122;8.832;2022-08-16T03:00:51;9.82;;;5.47;;
23113;SDS011;11726;50.122;8.832;2022-08-16T03:03:21;7.18;;;5.95;;
23113;SDS011;11726;50.122;8.832;2022-08-16T03:05:49;9.02;;;5.70;;
23113;SDS011;11726;50.122;8.832;2022-08-16T03:08:19;9.13;;;5.72;;
23113;SDS011;11726;50.122;8.832;2022-08-16T03:11:07;10.13;;;6.05;;
23113;SDS011;11726;50.122;8.832;2022-08-16T03:13:52;6.28;;;5.35;;
23113;SDS011;11726;50.122;8.832;2022-08-16T03:16:22;8.63;;;5.65;;
23113;SDS011;11726;50.122;8.832;2022-08-16T03:19:08;8.15;;;5.80;;
23113;SDS011;11726;50.122;8.832;2022-08-16T03:21:35;6.68;;;5.65;;
23113;SDS011;11726;50.122;8.832;2022-08-16T03:24:06;9.07;;;5.50;;
23113;SDS011;11726;50.122;8.832;2022-08-16T03:26:54;9.27;;;6.00;;
23113;SDS011;11726;50.122;8.832;2022-08-16T03:29:25;8.20;;;6.35;;
23113;SDS011;11726;50.122;8.832;2022-08-16T03:31:59;9.75;;;5.93;;
23113;SDS011;11726;50.122;8.832;2022-08-16T03:34:27;7.85;;;5.50;;
23113;SDS011;11726;50.122;8.832;2022-08-16T03:36:55;6.82;;;5.50;;
23113;SDS011;11726;50.122;8.832;2022-08-16T03:39:23;7.65;;;5.60;;
23113;SDS011;11726;50.122;8.832;2022-08-16T03:41:50;8.25;;;5.35;;
23113;SDS011;11726;50.122;8.832;2022-08-16T03:44:25;7.65;;;6.00;;
23113;SDS011;11726;50.122;8.832;2022-08-16T03:47:13;12.57;;;6.20;;
23113;SDS011;11726;50.122;8.832;2022-08-16T03:49:44;8.48;;;5.43;;
23113;SDS011;11726;50.122;8.832;2022-08-16T03:52:17;7.13;;;5.18;;
23113;SDS011;11726;50.122;8.832;2022-08-16T03:54:45;7.07;;;5.55;;
23113;SDS011;11726;50.122;8.832;2022-08-16T03:57:24;10.15;;;5.57;;
23113;SDS011;11726;50.122;8.832;2022-08-16T04:03:06;7.85;;;5.25;;
23113;SDS011;11726;50.122;8.832;2022-08-16T04:05:38;8.10;;;5.50;;
23113;SDS011;11726;50.122;8.832;2022-08-16T04:08:19;7.43;;;5.85;;
23113;SDS011;11726;50.122;8.832;2022-08-16T04:10:53;7.35;;;5.20;;
23113;SDS011;11726;50.122;8.832;2022-08-16T04:13:23;5.43;;;4.70;;
23113;SDS011;11726;50.122;8.832;2022-08-16T04:16:10;6.97;;;5.47;;
23113;SDS011;11726;50.122;8.832;2022-08-16T04:18:54;5.30;;;4.80;;
23113;SDS011;11726;50.122;8.832;2022-08-16T04:21:28;7.10;;;5.25;;
23113;SDS011;11726;50.122;8.832;2022-08-16T04:24:12;6.18;;;5.25;;
23113;SDS011;11726;50.122;8.832;2022-08-16T04:26:39;8.38;;;5.80;;
23113;SDS011;11726;50.122;8.832;2022-08-16T04:29:11;7.68;;;5.70;;
23113;SDS011;11726;50.122;8.832;2022-08-16T04:31:50;7.30;;;5.40;;
23113;SDS011;11726;50.122;8.832;2022-08-16T04:34:21;5.60;;;5.10;;
23113;SDS011;11726;50.122;8.832;2022-08-16T04:36:51;8.98;;;5.82;;
23113;SDS011;11726;50.122;8.832;2022-08-16T04:39:19;8.30;;;5.53;;
23113;SDS011;11726;50.122;8.832;2022-08-16T04:41:49;9.98;;;6.22;;
23113;SDS011;11726;50.122;8.832;2022-08-16T04:44:22;6.85;;;5.43;;
23113;SDS011;11726;50.122;8.832;2022-08-16T04:47:09;11.48;;;5.80;;
23113;SDS011;11726;50.122;8.832;2022-08-16T04:49:49;9.23;;;5.40;;
23113;SDS011;11726;50.122;8.832;2022-08-16T04:52:18;7.93;;;5.72;;
23113;SDS011;11726;50.122;8.832;2022-08-16T04:55:12;6.68;;;5.43;;
23113;SDS011;11726;50.122;8.832;2022-08-16T04:57:40;8.70;;;5.30;;
23113;SDS011;11726;50.122;8.832;2022-08-16T05:00:13;12.30;;;6.18;;
23113;SDS011;11726;50.122;8.832;2022-08-16T05:02:59;8.13;;;5.18;;
23113;SDS011;11726;50.122;8.832;2022-08-16T05:05:33;9.93;;;5.40;;
23113;SDS011;11726;50.122;8.832;2022-08-16T05:08:24;9.30;;;5.30;;
23113;SDS011;11726;50.122;8.832;2022-08-16T05:10:56;7.25;;;5.15;;
23113;SDS011;11726;50.122;8.832;2022-08-16T05:13:25;10.10;;;5.78;;
23113;SDS011;11726;50.122;8.832;2022-08-16T05:16:41;7.68;;;5.78;;
23113;SDS011;11726;50.122;8.832;2022-08-16T05:19:00;6.85;;;5.57;;
23113;SDS011;11726;50.122;8.832;2022-08-16T05:21:27;7.20;;;5.72;;
23113;SDS011;11726;50.122;8.832;2022-08-16T05:24:04;8.73;;;5.97;;
23113;SDS011;11726;50.122;8.832;2022-08-16T05:26:32;9.50;;;6.07;;
23113;SDS011;11726;50.122;8.832;2022-08-16T05:29:06;7.82;;;5.53;;
23113;SDS011;11726;50.122;8.832;2022-08-16T05:31:39;7.68;;;5.78;;
23113;SDS011;11726;50.122;8.832;2022-08-16T05:34:13;7.78;;;6.13;;
23113;SDS011;11726;50.122;8.832;2022-08-16T05:36:44;9.30;;;6.47;;
23113;SDS011;11726;50.122;8.832;2022-08-16T05:39:16;7.50;;;6.70;;
23113;SDS011;11726;50.122;8.832;2022-08-16T05:41:46;11.57;;;6.72;;
23113;SDS011;11726;50.122;8.832;2022-08-16T05:44:17;8.25;;;6.78;;
23113;SDS011;11726;50.122;8.832;2022-08-16T05:46:51;10.43;;;6.45;;
23113;SDS011;11726;50.122;8.832;2022-08-16T05:49:22;7.15;;;6.28;;
23113;SDS011;11726;50.122;8.832;2022-08-16T05:52:04;8.88;;;6.18;;
23113;SDS011;11726;50.122;8.832;2022-08-16T05:54:38;6.40;;;5.80;;
23113;SDS011;11726;50.122;8.832;2022-08-16T05:57:14;6.20;;;5.60;;
23113;SDS011;11726;50.122;8.832;2022-08-16T05:59:42;7.75;;;5.85;;
23113;SDS011;11726;50.122;8.832;2022-08-16T06:02:12;6.97;;;6.28;;
23113;SDS011;11726;50.122;8.832;2022-08-16T06:04:40;8.27;;;6.22;;
23113;SDS011;11726;50.122;8.832;2022-08-16T06:07:10;7.82;;;5.75;;
23113;SDS011;11726;50.122;8.832;2022-08-16T06:09:51;8.15;;;5.90;;
23113;SDS011;11726;50.122;8.832;2022-08-16T06:12:17;9.30;;;6.13;;
23113;SDS011;11726;50.122;8.832;2022-08-16T06:14:53;8.45;;;6.32;;
23113;SDS011;11726;50.122;8.832;2022-08-16T06:17:24;6.70;;;5.13;;
23113;SDS011;11726;50.122;8.832;2022-08-16T06:20:10;8.18;;;5.85;;
23113;SDS011;11726;50.122;8.832;2022-08-16T06:23:00;9.07;;;6.63;;
23113;SDS011;11726;50.122;8.832;2022-08-16T06:25:37;8.55;;;7.07;;
23113;SDS011;11726;50.122;8.832;2022-08-16T06:28:05;9.45;;;6.38;;
23113;SDS011;11726;50.122;8.832;2022-08-16T06:30:36;10.57;;;7.40;;
23113;SDS011;11726;50.122;8.832;2022-08-16T06:33:09;9.32;;;7.60;;
23113;SDS011;11726;50.122;8.832;2022-08-16T06:35:38;8.05;;;6.53;;
23113;SDS011;11726;50.122;8.832;2022-08-16T06:38:08;7.22;;;6.28;;
23113;SDS011;11726;50.122;8.832;2022-08-16T06:40:55;8.65;;;6.13;;
23113;SDS011;11726;50.122;8.832;2022-08-16T06:43:22;8.88;;;6.85;;
23113;SDS011;11726;50.122;8.832;2022-08-16T06:45:53;7.68;;;6.22;;
23113;SDS011;11726;50.122;8.832;2022-08-16T06:48:19;8.25;;;7.13;;
23113;SDS011;11726;50.122;8.832;2022-08-16T06:51:00;8.35;;;7.40;;
23113;SDS011;11726;50.122;8.832;2022-08-16T06:53:31;9.50;;;7.50;;
23113;SDS011;11726;50.122;8.832;2022-08-16T06:56:01;11.40;;;7.57;;
23113;SDS011;11726;50.122;8.832;2022-08-16T06:58:40;7.63;;;6.78;;
23113;SDS011;11726;50.122;8.832;2022-08-16T07:01:06;11.75;;;8.20;;
23113;SDS011;11726;50.122;8.832;2022-08-16T07:03:39;8.85;;;7.63;;
23113;SDS011;11726;50.122;8.832;2022-08-16T07:06:22;13.27;;;7.70;;
23113;SDS011;11726;50.122;8.832;2022-08-16T07:08:52;10.93;;;8.23;;
23113;SDS011;11726;50.122;8.832;2022-08-16T07:11:19;9.48;;;7.07;;
23113;SDS011;11726;50.122;8.832;2022-08-16T07:14:06;8.98;;;7.60;;
23113;SDS011;11726;50.122;8.832;2022-08-16T07:19:19;9.27;;;7.90;;
23113;SDS011;11726;50.122;8.832;2022-08-16T07:21:46;11.75;;;7.70;;
23113;SDS011;11726;50.122;8.832;2022-08-16T07:24:25;9.98;;;7.20;;
23113;SDS011;11726;50.122;8.832;2022-08-16T07:26:57;9.00;;;8.00;;
23113;SDS011;11726;50.122;8.832;2022-08-16T07:29:26;7.63;;;6.93;;
23113;SDS011;11726;50.122;8.832;2022-08-16T07:31:57;8.73;;;7.85;;
23113;SDS011;11726;50.122;8.832;2022-08-16T07:34:26;9.93;;;7.90;;
23113;SDS011;11726;50.122;8.832;2022-08-16T07:37:04;7.93;;;6.57;;
23113;SDS011;11726;50.122;8.832;2022-08-16T07:39:35;7.95;;;7.15;;
23113;SDS011;11726;50.122;8.832;2022-08-16T07:42:08;7.38;;;6.68;;
23113;SDS011;11726;50.122;8.832;2022-08-16T07:44:58;12.90;;;7.18;;
23113;SDS011;11726;50.122;8.832;2022-08-16T07:47:25;9.68;;;7.25;;
23113;SDS011;11726;50.122;8.832;2022-08-16T07:49:57;6.93;;;5.70;;
23113;SDS011;11726;50.122;8.832;2022-08-16T07:52:32;7.43;;;6.72;;
23113;SDS011;11726;50.122;8.832;2022-08-16T07:55:04;6.97;;;6.32;;
23113;SDS011;11726;50.122;8.832;2022-08-16T07:57:31;8.18;;;7.05;;
23113;SDS011;11726;50.122;8.832;2022-08-16T08:00:10;7.43;;;6.28;;
23113;SDS011;11726;50.122;8.832;2022-08-16T08:02:44;7.32;;;6.57;;
23113;SDS011;11726;50.122;8.832;2022-08-16T08:05:17;9.90;;;6.88;;
23113;SDS011;11726;50.122;8.832;2022-08-16T08:08:00;6.72;;;5.97;;
23113;SDS011;11726;50.122;8.832;2022-08-16T08:10:37;6.70;;;6.10;;
23113;SDS011;11726;50.122;8.832;2022-08-16T08:13:04;6.18;;;5.43;;
23113;SDS011;11726;50.122;8.832;2022-08-16T08:15:32;5.90;;;5.28;;
23113;SDS011;11726;50.122;8.832;2022-08-16T08:18:02;6.20;;;5.60;;
23113;SDS011;11726;50.122;8.832;2022-08-16T08:20:49;5.88;;;5.30;;
23113;SDS011;11726;50.122;8.832;2022-08-16T08:23:25;5.90;;;5.28;;
23113;SDS011;11726;50.122;8.832;2022-08-16T08:25:52;5.30;;;4.80;;
23113;SDS011;11726;50.122;8.832;2022-08-16T08:28:21;5.35;;;4.80;;
23113;SDS011;11726;50.122;8.832;2022-08-16T08:30:48;6.18;;;4.65;;
23113;SDS011;11726;50.122;8.832;2022-08-16T08:33:28;5.15;;;4.65;;
23113;SDS011;11726;50.122;8.832;2022-08-16T08:35:57;5.53;;;4.60;;
23113;SDS011;11726;50.122;8.832;2022-08-16T08:38:26;6.43;;;5.10;;
23113;SDS011;11726;50.122;8.832;2022-08-16T08:41:11;7.68;;;4.82;;
23113;SDS011;11726;50.122;8.832;2022-08-16T08:43:39;5.43;;;4.88;;
23113;SDS011;11726;50.122;8.832;2022-08-16T08:46:08;6.47;;;4.95;;
23113;SDS011;11726;50.122;8.832;2022-08-16T08:48:43;7.53;;;4.80;;
23113;SDS011;11726;50.122;8.832;2022-08-16T08:51:25;5.20;;;4.07;;
23113;SDS011;11726;50.122;8.832;2022-08-16T08:54:00;6.03;;;4.43;;
23113;SDS011;11726;50.122;8.832;2022-08-16T08:56:35;5.75;;;4.25;;
23113;SDS011;11726;50.122;8.832;2022-08-16T08:59:11;5.32;;;4.88;;
23113;SDS011;11726;50.122;8.832;2022-08-16T09:01:46;5.88;;;4.68;;
23113;SDS011;11726;50.122;8.832;2022-08-16T09:04:23;6.22;;;4.72;;
23113;SDS011;11726;50.122;8.832;2022-08-16T09:06:52;5.53;;;4.55;;
23113;SDS011;11726;50.122;8.832;2022-08-16T09:09:20;5.18;;;4.00;;
23113;SDS011;11726;50.122;8.832;2022-08-16T09:11:48;4.80;;;4.32;;
23113;SDS011;11726;50.122;8.832;2022-08-16T09:14:32;6.47;;;4.85;;
23113;SDS011;11726;50.122;8.832;2022-08-16T09:17:00;5.10;;;4.60;;
23113;SDS011;11726;50.122;8.832;2022-08-16T09:19:47;4.50;;;3.80;;
23113;SDS011;11726;50.122;8.832;2022-08-16T09:22:24;4.85;;;4.32;;
23113;SDS011;11726;50.122;8.832;2022-08-16T09:24:53;4.47;;;4.07;;
23113;SDS011;11726;50.122;8.832;2022-08-16T09:27:36;4.95;;;4.10;;
23113;SDS011;11726;50.122;8.832;2022-08-16T09:30:22;4.00;;;3.58;;
23113;SDS011;11726;50.122;8.832;2022-08-16T09:33:09;5.43;;;3.70;;
23113;SDS011;11726;50.122;8.832;2022-08-16T09:35:37;4.28;;;3.97;;
23113;SDS011;11726;50.122;8.832;2022-08-16T09:38:07;4.10;;;3.72;;
23113;SDS011;11726;50.122;8.832;2022-08-16T09:40:37;5.40;;;4.00;;
23113;SDS011;11726;50.122;8.832;2022-08-16T09:43:09;4.30;;;3.90;;
23113;SDS011;11726;50.122;8.832;2022-08-16T09:45:58;4.03;;;3.50;;
23113;SDS011;11726;50.122;8.832;2022-08-16T09:48:26;4.55;;;3.80;;
23113;SDS011;11726;50.122;8.832;2022-08-16T09:51:11;4.88;;;3.92;;
23113;SDS011;11726;50.122;8.832;2022-08-16T09:53:39;5.80;;;4.32;;
23113;SDS011;11726;50.122;8.832;2022-08-16T09:56:14;6.78;;;4.22;;
23113;SDS011;11726;50.122;8.832;2022-08-16T09:58:51;6.97;;;4.05;;
23113;SDS011;11726;50.122;8.832;2022-08-16T10:01:32;5.90;;;4.47;;
23113;SDS011;11726;50.122;8.832;2022-08-16T10:04:04;4.57;;;4.18;;
23113;SDS011;11726;50.122;8.832;2022-08-16T10:06:52;5.25;;;4.10;;
23113;SDS011;11726;50.122;8.832;2022-08-16T10:09:23;3.85;;;3.42;;
23113;SDS011;11726;50.122;8.832;2022-08-16T10:11:50;6.55;;;4.03;;
23113;SDS011;11726;50.122;8.832;2022-08-16T10:14:44;6.43;;;4.15;;
23113;SDS011;11726;50.122;8.832;2022-08-16T10:17:11;5.35;;;3.90;;
23113;SDS011;11726;50.122;8.832;2022-08-16T10:19:39;4.43;;;4.03;;
23113;SDS011;11726;50.122;8.832;2022-08-16T10:22:08;4.40;;;4.00;;
23113;SDS011;11726;50.122;8.832;2022-08-16T10:24:38;4.68;;;4.20;;
23113;SDS011;11726;50.122;8.832;2022-08-16T10:27:21;4.68;;;4.28;;
23113;SDS011;11726;50.122;8.832;2022-08-16T10:29:56;6.20;;;3.97;;
23113;SDS011;11726;50.122;8.832;2022-08-16T10:32:28;4.95;;;4.40;;
23113;SDS011;11726;50.122;8.832;2022-08-16T10:34:57;4.28;;;3.75;;
23113;SDS011;11726;50.122;8.832;2022-08-16T10:37:25;4.97;;;4.40;;
23113;SDS011;11726;50.122;8.832;2022-08-16T10:40:02;4.80;;;4.30;;
23113;SDS011;11726;50.122;8.832;2022-08-16T10:42:51;7.10;;;4.13;;
23113;SDS011;11726;50.122;8.832;2022-08-16T10:45:18;5.53;;;3.60;;
23113;SDS011;11726;50.122;8.832;2022-08-16T10:47:47;3.97;;;3.58;;
23113;SDS011;11726;50.122;8.832;2022-08-16T10:50:28;3.60;;;3.40;;
23113;SDS011;11726;50.122;8.832;2022-08-16T10:52:55;4.15;;;3.75;;
23113;SDS011;11726;50.122;8.832;2022-08-16T10:55:25;4.40;;;3.90;;
23113;SDS011;11726;50.122;8.832;2022-08-16T10:58:11;3.38;;;3.10;;
23113;SDS011;11726;50.122;8.832;2022-08-16T11:00:42;3.30;;;2.92;;
23113;SDS011;11726;50.122;8.832;2022-08-16T11:03:12;4.03;;;3.20;;
23113;SDS011;11726;50.122;8.832;2022-08-16T11:06:01;3.70;;;3.10;;
23113;SDS011;11726;50.122;8.832;2022-08-16T11:08:33;3.20;;;2.90;;
23113;SDS011;11726;50.122;8.832;2022-08-16T11:11:10;4.05;;;3.65;;
23113;SDS011;11726;50.122;8.832;2022-08-16T11:13:45;3.30;;;3.10;;
23113;SDS011;11726;50.122;8.832;2022-08-16T11:16:33;4.47;;;3.28;;
23113;SDS011;11726;50.122;8.832;2022-08-16T11:19:20;6.80;;;3.40;;
23113;SDS011;11726;50.122;8.832;2022-08-16T11:21:48;3.97;;;3.58;;
23113;SDS011;11726;50.122;8.832;2022-08-16T11:24:34;4.18;;;3.38;;
23113;SDS011;11726;50.122;8.832;2022-08-16T11:27:12;3.92;;;3.53;;
23113;SDS011;11726;50.122;8.832;2022-08-16T11:29:45;5.57;;;3.60;;
23113;SDS011;11726;50.122;8.832;2022-08-16T11:32:13;3.75;;;3.38;;
23113;SDS011;11726;50.122;8.832;2022-08-16T11:34:45;3.58;;;3.28;;
23113;SDS011;11726;50.122;8.832;2022-08-16T11:37:33;4.18;;;3.78;;
23113;SDS011;11726;50.122;8.832;2022-08-16T11:40:22;3.53;;;3.22;;
23113;SDS011;11726;50.122;8.832;2022-08-16T11:42:58;3.95;;;3.30;;
23113;SDS011;11726;50.122;8.832;2022-08-16T11:45:30;4.38;;;3.17;;
23113;SDS011;11726;50.122;8.832;2022-08-16T11:48:03;5.57;;;2.97;;
23113;SDS011;11726;50.122;8.832;2022-08-16T11:50:31;3.47;;;3.17;;
23113;SDS011;11726;50.122;8.832;2022-08-16T11:52:59;4.03;;;3.03;;
23113;SDS011;11726;50.122;8.832;2022-08-16T11:55:31;2.75;;;2.55;;
23113;SDS011;11726;50.122;8.832;2022-08-16T11:58:04;2.90;;;2.70;;
23113;SDS011;11726;50.122;8.832;2022-08-16T12:00:39;3.00;;;2.70;;
23113;SDS011;11726;50.122;8.832;2022-08-16T12:03:20;3.47;;;3.03;;
23113;SDS011;11726;50.122;8.832;2022-08-16T12:06:02;4.43;;;2.92;;
23113;SDS011;11726;50.122;8.832;2022-08-16T12:08:36;2.85;;;2.60;;
23113;SDS011;11726;50.122;8.832;2022-08-16T12:11:06;3.05;;;2.85;;
23113;SDS011;11726;50.122;8.832;2022-08-16T12:13:34;5.05;;;2.95;;
23113;SDS011;11726;50.122;8.832;2022-08-16T12:16:01;4.50;;;3.20;;
23113;SDS011;11726;50.122;8.832;2022-08-16T12:18:29;3.55;;;3.05;;
23113;SDS011;11726;50.122;8.832;2022-08-16T12:20:56;4.15;;;3.30;;
23113;SDS011;11726;50.122;8.832;2022-08-16T12:23:25;4.78;;;2.83;;
23113;SDS011;11726;50.122;8.832;2022-08-16T12:25:52;4.25;;;3.47;;
23113;SDS011;11726;50.122;8.832;2022-08-16T12:28:18;3.80;;;3.10;;
23113;SDS011;11726;50.122;8.832;2022-08-16T12:31:05;4.82;;;3.00;;
23113;SDS011;11726;50.122;8.832;2022-08-16T12:33:32;4.07;;;2.80;;
23113;SDS011;11726;50.122;8.832;2022-08-16T12:36:10;4.28;;;3.10;;
23113;SDS011;11726;50.122;8.832;2022-08-16T12:38:38;3.60;;;2.95;;
23113;SDS011;11726;50.122;8.832;2022-08-16T12:41:14;5.07;;;2.90;;
23113;SDS011;11726;50.122;8.832;2022-08-16T12:43:50;2.83;;;2.63;;
23113;SDS011;11726;50.122;8.832;2022-08-16T12:46:17;3.05;;;2.70;;
23113;SDS011;11726;50.122;8.832;2022-08-16T12:48:43;3.40;;;2.75;;
23113;SDS011;11726;50.122;8.832;2022-08-16T12:51:31;4.18;;;3.20;;
23113;SDS011;11726;50.122;8.832;2022-08-16T12:54:24;2.88;;;2.65;;
23113;SDS011;11726;50.122;8.832;2022-08-16T12:56:50;6.47;;;3.42;;
23113;SDS011;11726;50.122;8.832;2022-08-16T12:59:17;2.88;;;2.63;;
23113;SDS011;11726;50.122;8.832;2022-08-16T13:01:46;3.53;;;3.00;;
23113;SDS011;11726;50.122;8.832;2022-08-16T13:04:20;3.40;;;3.10;;
23113;SDS011;11726;50.122;8.832;2022-08-16T13:06:50;4.28;;;2.90;;
23113;SDS011;11726;50.122;8.832;2022-08-16T13:09:21;5.68;;;2.83;;
23113;SDS011;11726;50.122;8.832;2022-08-16T13:14:33;3.28;;;2.70;;
23113;SDS011;11726;50.122;8.832;2022-08-16T13:17:04;3.30;;;2.78;;
23113;SDS011;11726;50.122;8.832;2022-08-16T13:19:36;2.70;;;2.33;;
23113;SDS011;11726;50.122;8.832;2022-08-16T13:22:26;2.60;;;2.40;;
23113;SDS011;11726;50.122;8.832;2022-08-16T13:24:56;3.10;;;2.80;;
23113;SDS011;11726;50.122;8.832;2022-08-16T13:27:23;2.92;;;2.35;;
23113;SDS011;11726;50.122;8.832;2022-08-16T13:30:10;3.10;;;2.65;;
23113;SDS011;11726;50.122;8.832;2022-08-16T13:32:58;3.40;;;2.53;;
23113;SDS011;11726;50.122;8.832;2022-08-16T13:35:25;2.63;;;2.42;;
23113;SDS011;11726;50.122;8.832;2022-08-16T13:37:59;3.15;;;2.47;;
23113;SDS011;11726;50.122;8.832;2022-08-16T13:40:26;3.20;;;2.20;;
23113;SDS011;11726;50.122;8.832;2022-08-16T13:42:55;3.65;;;2.40;;
23113;SDS011;11726;50.122;8.832;2022-08-16T13:45:22;3.03;;;2.25;;
23113;SDS011;11726;50.122;8.832;2022-08-16T13:47:48;2.95;;;2.20;;
23113;SDS011;11726;50.122;8.832;2022-08-16T13:50:18;2.25;;;2.05;;
23113;SDS011;11726;50.122;8.832;2022-08-16T13:53:07;3.38;;;2.38;;
23113;SDS011;11726;50.122;8.832;2022-08-16T13:55:34;3.80;;;2.38;;
23113;SDS011;11726;50.122;8.832;2022-08-16T13:58:01;3.33;;;2.10;;
23113;SDS011;11726;50.122;8.832;2022-08-16T14:00:48;2.22;;;1.98;;
23113;SDS011;11726;50.122;8.832;2022-08-16T14:03:18;1.88;;;1.70;;
23113;SDS011;11726;50.122;8.832;2022-08-16T14:05:49;4.15;;;2.15;;
23113;SDS011;11726;50.122;8.832;2022-08-16T14:08:18;1.90;;;1.80;;
23113;SDS011;11726;50.122;8.832;2022-08-16T14:10:51;2.33;;;1.70;;
23113;SDS011;11726;50.122;8.832;2022-08-16T14:13:21;2.95;;;1.90;;
23113;SDS011;11726;50.122;8.832;2022-08-16T14:15:49;2.25;;;1.92;;
23113;SDS011;11726;50.122;8.832;2022-08-16T14:18:16;2.38;;;1.77;;
23113;SDS011;11726;50.122;8.832;2022-08-16T14:20:46;3.13;;;1.95;;
23113;SDS011;11726;50.122;8.832;2022-08-16T14:23:14;2.03;;;1.88;;
23113;SDS011;11726;50.122;8.832;2022-08-16T14:25:46;2.15;;;1.90;;
23113;SDS011;11726;50.122;8.832;2022-08-16T14:28:19;2.22;;;2.03;;
23113;SDS011;11726;50.122;8.832;2022-08-16T14:30:48;2.05;;;1.90;;
23113;SDS011;11726;50.122;8.832;2022-08-16T14:33:16;3.72;;;2.13;;
23113;SDS011;11726;50.122;8.832;2022-08-16T14:35:44;4.32;;;2.08;;
23113;SDS011;11726;50.122;8.832;2022-08-16T14:38:16;3.40;;;2.17;;
23113;SDS011;11726;50.122;8.832;2022-08-16T14:40:49;2.35;;;2.20;;
23113;SDS011;11726;50.122;8.832;2022-08-16T14:43:20;3.17;;;1.77;;
23113;SDS011;11726;50.122;8.832;2022-08-16T14:45:48;1.98;;;1.80;;
23113;SDS011;11726;50.122;8.832;2022-08-16T14:48:19;2.17;;;2.03;;
23113;SDS011;11726;50.122;8.832;2022-08-16T14:50:52;2.60;;;1.95;;
23113;SDS011;11726;50.122;8.832;2022-08-16T14:53:21;2.25;;;1.90;;
23113;SDS011;11726;50.122;8.832;2022-08-16T14:55:48;2.38;;;1.83;;
23113;SDS011;11726;50.122;8.832;2022-08-16T14:58:16;4.18;;;2.20;;
23113;SDS011;11726;50.122;8.832;2022-08-16T15:01:00;7.80;;;2.33;;
23113;SDS011;11726;50.122;8.832;2022-08-16T15:03:28;3.53;;;2.10;;
23113;SDS011;11726;50.122;8.832;2022-08-16T15:05:58;6.57;;;2.00;;
23113;SDS011;11726;50.122;8.832;2022-08-16T15:08:26;2.50;;;2.00;;
23113;SDS011;11726;50.122;8.832;2022-08-16T15:11:02;5.03;;;2.10;;
23113;SDS011;11726;50.122;8.832;2022-08-16T15:13:30;2.40;;;1.98;;
23113;SDS011;11726;50.122;8.832;2022-08-16T15:15:57;2.42;;;2.22;;
23113;SDS011;11726;50.122;8.832;2022-08-16T15:18:28;3.75;;;2.30;;
23113;SDS011;11726;50.122;8.832;2022-08-16T15:20:57;1.83;;;1.73;;
23113;SDS011;11726;50.122;8.832;2022-08-16T15:23:24;2.28;;;1.98;;
23113;SDS011;11726;50.122;8.832;2022-08-16T15:25:54;2.67;;;1.70;;
23113;SDS011;11726;50.122;8.832;2022-08-16T15:28:30;2.65;;;1.90;;
23113;SDS011;11726;50.122;8.832;2022-08-16T15:31:01;2.42;;;1.75;;
23113;SDS011;11726;50.122;8.832;2022-08-16T15:33:36;3.28;;;2.20;;
23113;SDS011;11726;50.122;8.832;2022-08-16T15:36:11;3.80;;;1.98;;